sensor_id;sensor_type;location;lat;lon;timestamp;P1;durP1;ratioP1;P2;durP2;ratioP2
15063;SDS011;7631;52.088;5.088;2023-04-06T00:01:33;8.50;;;7.23;;
15063;SDS011;7631;52.088;5.088;2023-04-06T00:03:58;9.47;;;7.60;;
15063;SDS011;7631;52.088;5.088;2023-04-06T00:06:23;9.23;;;7.67;;
15063;SDS011;7631;52.088;5.088;2023-04-06T00:08:49;10.37;;;8.37;;
15063;SDS011;7631;52.088;5.088;2023-04-06T00:11:14;11.13;;;8.47;;
15063;SDS011;7631;52.088;5.088;2023-04-06T00:13:41;9.53;;;7.83;;
15063;SDS011;7631;52.088;5.088;2023-04-06T00:16:06;8.67;;;7.00;;
15063;SDS011;7631;52.088;5.088;2023-04-06T00:18:32;9.67;;;7.97;;
15063;SDS011;7631;52.088;5.088;2023-04-06T00:20:57;9.30;;;7.40;;
15063;SDS011;7631;52.088;5.088;2023-04-06T00:23:22;10.50;;;7.57;;
15063;SDS011;7631;52.088;5.088;2023-04-06T00:25:47;7.93;;;7.13;;
15063;SDS011;7631;52.088;5.088;2023-04-06T00:28:12;9.43;;;7.10;;
15063;SDS011;7631;52.088;5.088;2023-04-06T00:30:38;10.73;;;8.13;;
15063;SDS011;7631;52.088;5.088;2023-04-06T00:33:03;9.27;;;7.40;;
15063;SDS011;7631;52.088;5.088;2023-04-06T00:35:28;11.67;;;7.90;;
15063;SDS011;7631;52.088;5.088;2023-04-06T00:37:53;11.03;;;7.57;;
15063;SDS011;7631;52.088;5.088;2023-04-06T00:40:18;10.10;;;7.90;;
15063;SDS011;7631;52.088;5.088;2023-04-06T00:42:44;8.93;;;7.67;;
15063;SDS011;7631;52.088;5.088;2023-04-06T00:45:09;8.77;;;6.93;;
15063;SDS011;7631;52.088;5.088;2023-04-06T00:47:35;8.03;;;6.97;;
15063;SDS011;7631;52.088;5.088;2023-04-06T00:50:00;8.70;;;7.50;;
15063;SDS011;7631;52.088;5.088;2023-04-06T00:52:25;9.93;;;7.77;;
15063;SDS011;7631;52.088;5.088;2023-04-06T00:54:50;10.17;;;8.00;;
15063;SDS011;7631;52.088;5.088;2023-04-06T00:57:16;9.33;;;7.70;;
15063;SDS011;7631;52.088;5.088;2023-04-06T00:59:41;8.63;;;7.27;;
15063;SDS011;7631;52.088;5.088;2023-04-06T01:02:07;8.60;;;6.87;;
15063;SDS011;7631;52.088;5.088;2023-04-06T01:04:33;8.93;;;7.60;;
15063;SDS011;7631;52.088;5.088;2023-04-06T01:06:58;9.53;;;7.40;;
15063;SDS011;7631;52.088;5.088;2023-04-06T01:09:23;7.40;;;6.47;;
15063;SDS011;7631;52.088;5.088;2023-04-06T01:11:49;8.50;;;7.17;;
15063;SDS011;7631;52.088;5.088;2023-04-06T01:14:14;8.53;;;6.90;;
15063;SDS011;7631;52.088;5.088;2023-04-06T01:16:40;8.50;;;7.00;;
15063;SDS011;7631;52.088;5.088;2023-04-06T01:19:09;8.57;;;6.93;;
15063;SDS011;7631;52.088;5.088;2023-04-06T01:21:34;9.70;;;7.00;;
15063;SDS011;7631;52.088;5.088;2023-04-06T01:24:00;7.77;;;6.60;;
15063;SDS011;7631;52.088;5.088;2023-04-06T01:26:25;10.37;;;7.93;;
15063;SDS011;7631;52.088;5.088;2023-04-06T01:28:51;8.43;;;7.20;;
15063;SDS011;7631;52.088;5.088;2023-04-06T01:31:16;9.40;;;7.23;;
15063;SDS011;7631;52.088;5.088;2023-04-06T01:33:42;8.93;;;6.93;;
15063;SDS011;7631;52.088;5.088;2023-04-06T01:36:07;9.20;;;7.07;;
15063;SDS011;7631;52.088;5.088;2023-04-06T01:38:32;9.07;;;6.83;;
15063;SDS011;7631;52.088;5.088;2023-04-06T01:40:57;8.60;;;7.30;;
15063;SDS011;7631;52.088;5.088;2023-04-06T01:43:23;7.53;;;6.70;;
15063;SDS011;7631;52.088;5.088;2023-04-06T01:45:48;7.50;;;6.77;;
15063;SDS011;7631;52.088;5.088;2023-04-06T01:48:13;8.47;;;6.43;;
15063;SDS011;7631;52.088;5.088;2023-04-06T01:50:38;8.70;;;6.90;;
15063;SDS011;7631;52.088;5.088;2023-04-06T01:53:03;8.50;;;6.33;;
15063;SDS011;7631;52.088;5.088;2023-04-06T01:55:29;8.60;;;6.87;;
15063;SDS011;7631;52.088;5.088;2023-04-06T01:57:54;8.67;;;6.87;;
15063;SDS011;7631;52.088;5.088;2023-04-06T02:00:19;8.63;;;6.87;;
15063;SDS011;7631;52.088;5.088;2023-04-06T02:02:45;7.90;;;7.00;;
15063;SDS011;7631;52.088;5.088;2023-04-06T02:05:10;7.10;;;6.20;;
15063;SDS011;7631;52.088;5.088;2023-04-06T02:07:35;8.50;;;7.00;;
15063;SDS011;7631;52.088;5.088;2023-04-06T02:10:01;7.63;;;6.33;;
15063;SDS011;7631;52.088;5.088;2023-04-06T02:12:27;8.70;;;6.73;;
15063;SDS011;7631;52.088;5.088;2023-04-06T02:14:52;8.20;;;6.77;;
15063;SDS011;7631;52.088;5.088;2023-04-06T02:17:17;8.20;;;6.50;;
15063;SDS011;7631;52.088;5.088;2023-04-06T02:19:42;9.07;;;7.23;;
15063;SDS011;7631;52.088;5.088;2023-04-06T02:22:07;8.63;;;6.87;;
15063;SDS011;7631;52.088;5.088;2023-04-06T02:24:33;8.47;;;6.60;;
15063;SDS011;7631;52.088;5.088;2023-04-06T02:26:58;9.57;;;6.63;;
15063;SDS011;7631;52.088;5.088;2023-04-06T02:29:23;7.00;;;6.23;;
15063;SDS011;7631;52.088;5.088;2023-04-06T02:31:48;10.10;;;6.93;;
15063;SDS011;7631;52.088;5.088;2023-04-06T02:34:14;8.07;;;6.17;;
15063;SDS011;7631;52.088;5.088;2023-04-06T02:36:45;7.03;;;6.20;;
15063;SDS011;7631;52.088;5.088;2023-04-06T02:39:11;7.67;;;6.70;;
15063;SDS011;7631;52.088;5.088;2023-04-06T02:41:37;8.37;;;6.63;;
15063;SDS011;7631;52.088;5.088;2023-04-06T02:44:02;6.90;;;6.20;;
15063;SDS011;7631;52.088;5.088;2023-04-06T02:46:28;7.47;;;6.17;;
15063;SDS011;7631;52.088;5.088;2023-04-06T02:48:53;8.17;;;6.80;;
15063;SDS011;7631;52.088;5.088;2023-04-06T02:51:18;8.00;;;6.97;;
15063;SDS011;7631;52.088;5.088;2023-04-06T02:53:43;7.47;;;6.17;;
15063;SDS011;7631;52.088;5.088;2023-04-06T02:56:08;6.80;;;5.70;;
15063;SDS011;7631;52.088;5.088;2023-04-06T02:58:34;6.37;;;5.67;;
15063;SDS011;7631;52.088;5.088;2023-04-06T03:00:59;7.77;;;6.63;;
15063;SDS011;7631;52.088;5.088;2023-04-06T03:03:24;7.47;;;6.63;;
15063;SDS011;7631;52.088;5.088;2023-04-06T03:05:50;7.03;;;5.77;;
15063;SDS011;7631;52.088;5.088;2023-04-06T03:08:15;7.70;;;6.10;;
15063;SDS011;7631;52.088;5.088;2023-04-06T03:10:40;7.17;;;6.33;;
15063;SDS011;7631;52.088;5.088;2023-04-06T03:13:05;8.63;;;6.60;;
15063;SDS011;7631;52.088;5.088;2023-04-06T03:15:31;7.10;;;5.60;;
15063;SDS011;7631;52.088;5.088;2023-04-06T03:17:56;7.63;;;6.43;;
15063;SDS011;7631;52.088;5.088;2023-04-06T03:20:21;7.50;;;5.87;;
15063;SDS011;7631;52.088;5.088;2023-04-06T03:22:47;6.60;;;5.67;;
15063;SDS011;7631;52.088;5.088;2023-04-06T03:25:12;6.47;;;5.73;;
15063;SDS011;7631;52.088;5.088;2023-04-06T03:27:37;8.87;;;6.10;;
15063;SDS011;7631;52.088;5.088;2023-04-06T03:30:02;6.90;;;5.93;;
15063;SDS011;7631;52.088;5.088;2023-04-06T03:32:28;7.70;;;5.97;;
15063;SDS011;7631;52.088;5.088;2023-04-06T03:34:53;7.53;;;5.93;;
15063;SDS011;7631;52.088;5.088;2023-04-06T03:37:18;7.27;;;6.07;;
15063;SDS011;7631;52.088;5.088;2023-04-06T03:39:43;6.83;;;5.83;;
15063;SDS011;7631;52.088;5.088;2023-04-06T03:42:08;7.27;;;6.03;;
15063;SDS011;7631;52.088;5.088;2023-04-06T03:44:34;6.40;;;5.20;;
15063;SDS011;7631;52.088;5.088;2023-04-06T03:46:59;6.50;;;5.80;;
15063;SDS011;7631;52.088;5.088;2023-04-06T03:49:24;7.33;;;6.00;;
15063;SDS011;7631;52.088;5.088;2023-04-06T03:51:49;7.23;;;5.77;;
15063;SDS011;7631;52.088;5.088;2023-04-06T03:54:15;6.57;;;5.87;;
15063;SDS011;7631;52.088;5.088;2023-04-06T03:56:40;7.10;;;5.47;;
15063;SDS011;7631;52.088;5.088;2023-04-06T03:59:05;6.87;;;6.13;;
15063;SDS011;7631;52.088;5.088;2023-04-06T04:01:30;6.50;;;5.80;;
15063;SDS011;7631;52.088;5.088;2023-04-06T04:03:56;7.33;;;6.03;;
15063;SDS011;7631;52.088;5.088;2023-04-06T04:06:21;6.73;;;5.20;;
15063;SDS011;7631;52.088;5.088;2023-04-06T04:08:46;7.10;;;5.70;;
15063;SDS011;7631;52.088;5.088;2023-04-06T04:11:11;6.53;;;5.80;;
15063;SDS011;7631;52.088;5.088;2023-04-06T04:13:36;6.60;;;5.67;;
15063;SDS011;7631;52.088;5.088;2023-04-06T04:16:02;7.13;;;5.80;;
15063;SDS011;7631;52.088;5.088;2023-04-06T04:18:27;7.63;;;5.87;;
15063;SDS011;7631;52.088;5.088;2023-04-06T04:20:52;7.50;;;5.80;;
15063;SDS011;7631;52.088;5.088;2023-04-06T04:23:17;6.80;;;5.80;;
15063;SDS011;7631;52.088;5.088;2023-04-06T04:25:43;6.63;;;5.57;;
15063;SDS011;7631;52.088;5.088;2023-04-06T04:28:08;6.30;;;5.43;;
15063;SDS011;7631;52.088;5.088;2023-04-06T04:30:33;6.40;;;5.70;;
15063;SDS011;7631;52.088;5.088;2023-04-06T04:32:58;6.93;;;5.87;;
15063;SDS011;7631;52.088;5.088;2023-04-06T04:35:24;6.40;;;5.50;;
15063;SDS011;7631;52.088;5.088;2023-04-06T04:37:49;6.57;;;5.67;;
15063;SDS011;7631;52.088;5.088;2023-04-06T04:40:14;7.73;;;5.83;;
15063;SDS011;7631;52.088;5.088;2023-04-06T04:42:40;7.00;;;5.80;;
15063;SDS011;7631;52.088;5.088;2023-04-06T04:45:06;6.80;;;5.37;;
15063;SDS011;7631;52.088;5.088;2023-04-06T04:47:31;7.00;;;6.00;;
15063;SDS011;7631;52.088;5.088;2023-04-06T04:49:56;6.53;;;5.40;;
15063;SDS011;7631;52.088;5.088;2023-04-06T04:52:21;7.23;;;5.83;;
15063;SDS011;7631;52.088;5.088;2023-04-06T04:54:47;7.63;;;6.50;;
15063;SDS011;7631;52.088;5.088;2023-04-06T04:57:12;8.77;;;6.27;;
15063;SDS011;7631;52.088;5.088;2023-04-06T04:59:37;7.43;;;6.00;;
15063;SDS011;7631;52.088;5.088;2023-04-06T05:02:03;7.03;;;6.10;;
15063;SDS011;7631;52.088;5.088;2023-04-06T05:04:28;7.17;;;5.97;;
15063;SDS011;7631;52.088;5.088;2023-04-06T05:07:06;7.77;;;6.97;;
15063;SDS011;7631;52.088;5.088;2023-04-06T05:09:32;7.60;;;6.40;;
15063;SDS011;7631;52.088;5.088;2023-04-06T05:11:58;7.07;;;5.97;;
15063;SDS011;7631;52.088;5.088;2023-04-06T05:14:23;7.97;;;6.60;;
15063;SDS011;7631;52.088;5.088;2023-04-06T05:16:48;7.57;;;6.33;;
15063;SDS011;7631;52.088;5.088;2023-04-06T05:19:13;8.47;;;6.40;;
15063;SDS011;7631;52.088;5.088;2023-04-06T05:21:39;9.53;;;6.27;;
15063;SDS011;7631;52.088;5.088;2023-04-06T05:24:04;7.40;;;6.10;;
15063;SDS011;7631;52.088;5.088;2023-04-06T05:26:29;7.60;;;6.07;;
15063;SDS011;7631;52.088;5.088;2023-04-06T05:28:54;8.03;;;6.23;;
15063;SDS011;7631;52.088;5.088;2023-04-06T05:31:20;8.43;;;6.47;;
15063;SDS011;7631;52.088;5.088;2023-04-06T05:33:45;7.50;;;6.17;;
15063;SDS011;7631;52.088;5.088;2023-04-06T05:36:10;7.97;;;6.57;;
15063;SDS011;7631;52.088;5.088;2023-04-06T05:38:36;8.20;;;6.53;;
15063;SDS011;7631;52.088;5.088;2023-04-06T05:41:03;6.93;;;5.70;;
15063;SDS011;7631;52.088;5.088;2023-04-06T05:43:28;8.40;;;7.07;;
15063;SDS011;7631;52.088;5.088;2023-04-06T05:45:53;8.00;;;6.40;;
15063;SDS011;7631;52.088;5.088;2023-04-06T05:48:18;7.40;;;6.37;;
15063;SDS011;7631;52.088;5.088;2023-04-06T05:50:47;7.77;;;6.20;;
15063;SDS011;7631;52.088;5.088;2023-04-06T05:53:12;7.77;;;5.93;;
15063;SDS011;7631;52.088;5.088;2023-04-06T05:55:38;10.13;;;6.70;;
15063;SDS011;7631;52.088;5.088;2023-04-06T05:58:03;7.60;;;6.20;;
15063;SDS011;7631;52.088;5.088;2023-04-06T06:00:28;7.00;;;6.30;;
15063;SDS011;7631;52.088;5.088;2023-04-06T06:02:53;8.10;;;6.27;;
15063;SDS011;7631;52.088;5.088;2023-04-06T06:05:19;8.43;;;6.33;;
15063;SDS011;7631;52.088;5.088;2023-04-06T06:07:44;8.50;;;6.90;;
15063;SDS011;7631;52.088;5.088;2023-04-06T06:10:09;8.07;;;6.63;;
15063;SDS011;7631;52.088;5.088;2023-04-06T06:12:35;7.20;;;6.13;;
15063;SDS011;7631;52.088;5.088;2023-04-06T06:15:00;9.60;;;7.03;;
15063;SDS011;7631;52.088;5.088;2023-04-06T06:17:25;7.70;;;6.50;;
15063;SDS011;7631;52.088;5.088;2023-04-06T06:19:50;8.43;;;6.63;;
15063;SDS011;7631;52.088;5.088;2023-04-06T06:22:16;8.63;;;6.23;;
15063;SDS011;7631;52.088;5.088;2023-04-06T06:24:41;8.83;;;7.17;;
15063;SDS011;7631;52.088;5.088;2023-04-06T06:27:06;9.37;;;6.93;;
15063;SDS011;7631;52.088;5.088;2023-04-06T06:29:32;7.93;;;6.27;;
15063;SDS011;7631;52.088;5.088;2023-04-06T06:31:57;8.80;;;6.63;;
15063;SDS011;7631;52.088;5.088;2023-04-06T06:34:23;8.27;;;6.80;;
15063;SDS011;7631;52.088;5.088;2023-04-06T06:36:48;7.90;;;6.33;;
15063;SDS011;7631;52.088;5.088;2023-04-06T06:39:13;7.70;;;6.30;;
15063;SDS011;7631;52.088;5.088;2023-04-06T06:41:38;7.87;;;6.33;;
15063;SDS011;7631;52.088;5.088;2023-04-06T06:44:03;8.03;;;6.77;;
15063;SDS011;7631;52.088;5.088;2023-04-06T06:46:29;8.57;;;7.33;;
15063;SDS011;7631;52.088;5.088;2023-04-06T06:48:54;8.23;;;6.20;;
15063;SDS011;7631;52.088;5.088;2023-04-06T06:51:19;8.07;;;6.57;;
15063;SDS011;7631;52.088;5.088;2023-04-06T06:53:45;10.97;;;7.47;;
15063;SDS011;7631;52.088;5.088;2023-04-06T06:56:10;7.90;;;6.77;;
15063;SDS011;7631;52.088;5.088;2023-04-06T06:58:35;8.73;;;6.80;;
15063;SDS011;7631;52.088;5.088;2023-04-06T07:01:00;9.00;;;6.87;;
15063;SDS011;7631;52.088;5.088;2023-04-06T07:03:25;8.03;;;6.47;;
15063;SDS011;7631;52.088;5.088;2023-04-06T07:05:51;7.07;;;6.37;;
15063;SDS011;7631;52.088;5.088;2023-04-06T07:08:19;8.40;;;6.87;;
15063;SDS011;7631;52.088;5.088;2023-04-06T07:10:45;8.33;;;6.73;;
15063;SDS011;7631;52.088;5.088;2023-04-06T07:13:10;8.37;;;6.27;;
15063;SDS011;7631;52.088;5.088;2023-04-06T07:15:35;7.70;;;6.60;;
15063;SDS011;7631;52.088;5.088;2023-04-06T07:18:02;8.40;;;6.50;;
15063;SDS011;7631;52.088;5.088;2023-04-06T07:20:27;8.40;;;6.33;;
15063;SDS011;7631;52.088;5.088;2023-04-06T07:22:53;8.57;;;6.90;;
15063;SDS011;7631;52.088;5.088;2023-04-06T07:25:18;8.27;;;6.87;;
15063;SDS011;7631;52.088;5.088;2023-04-06T07:27:43;8.07;;;6.80;;
15063;SDS011;7631;52.088;5.088;2023-04-06T07:30:08;9.40;;;6.90;;
15063;SDS011;7631;52.088;5.088;2023-04-06T07:32:33;7.97;;;6.83;;
15063;SDS011;7631;52.088;5.088;2023-04-06T07:35:00;8.40;;;6.93;;
15063;SDS011;7631;52.088;5.088;2023-04-06T07:37:25;8.17;;;6.70;;
15063;SDS011;7631;52.088;5.088;2023-04-06T07:39:51;7.80;;;6.80;;
15063;SDS011;7631;52.088;5.088;2023-04-06T07:42:16;8.93;;;7.50;;
15063;SDS011;7631;52.088;5.088;2023-04-06T07:44:41;10.90;;;7.83;;
15063;SDS011;7631;52.088;5.088;2023-04-06T07:47:06;8.00;;;6.83;;
15063;SDS011;7631;52.088;5.088;2023-04-06T07:49:31;10.00;;;7.13;;
15063;SDS011;7631;52.088;5.088;2023-04-06T07:51:57;8.63;;;6.83;;
15063;SDS011;7631;52.088;5.088;2023-04-06T07:54:23;7.83;;;6.70;;
15063;SDS011;7631;52.088;5.088;2023-04-06T07:56:48;7.37;;;6.43;;
15063;SDS011;7631;52.088;5.088;2023-04-06T07:59:13;7.80;;;6.83;;
15063;SDS011;7631;52.088;5.088;2023-04-06T08:01:38;8.53;;;7.30;;
15063;SDS011;7631;52.088;5.088;2023-04-06T08:04:04;11.67;;;7.63;;
15063;SDS011;7631;52.088;5.088;2023-04-06T08:06:29;8.27;;;7.10;;
15063;SDS011;7631;52.088;5.088;2023-04-06T08:08:55;10.27;;;7.00;;
15063;SDS011;7631;52.088;5.088;2023-04-06T08:11:20;8.03;;;6.77;;
15063;SDS011;7631;52.088;5.088;2023-04-06T08:13:45;7.87;;;6.63;;
15063;SDS011;7631;52.088;5.088;2023-04-06T08:16:10;8.87;;;6.73;;
15063;SDS011;7631;52.088;5.088;2023-04-06T08:18:36;9.17;;;7.63;;
15063;SDS011;7631;52.088;5.088;2023-04-06T08:21:01;7.87;;;6.70;;
15063;SDS011;7631;52.088;5.088;2023-04-06T08:23:26;8.67;;;7.50;;
15063;SDS011;7631;52.088;5.088;2023-04-06T08:25:51;8.13;;;7.07;;
15063;SDS011;7631;52.088;5.088;2023-04-06T08:28:19;10.23;;;7.43;;
15063;SDS011;7631;52.088;5.088;2023-04-06T08:30:44;9.67;;;7.10;;
15063;SDS011;7631;52.088;5.088;2023-04-06T08:33:10;9.27;;;7.60;;
15063;SDS011;7631;52.088;5.088;2023-04-06T08:35:35;9.17;;;7.47;;
15063;SDS011;7631;52.088;5.088;2023-04-06T08:38:01;8.13;;;7.20;;
15063;SDS011;7631;52.088;5.088;2023-04-06T08:40:26;8.43;;;7.03;;
15063;SDS011;7631;52.088;5.088;2023-04-06T08:42:53;8.97;;;7.47;;
15063;SDS011;7631;52.088;5.088;2023-04-06T08:45:19;8.70;;;7.37;;
15063;SDS011;7631;52.088;5.088;2023-04-06T08:47:46;9.20;;;7.93;;
15063;SDS011;7631;52.088;5.088;2023-04-06T08:50:11;8.27;;;7.13;;
15063;SDS011;7631;52.088;5.088;2023-04-06T08:52:37;9.37;;;7.80;;
15063;SDS011;7631;52.088;5.088;2023-04-06T08:55:03;9.07;;;7.80;;
15063;SDS011;7631;52.088;5.088;2023-04-06T08:57:28;9.03;;;7.80;;
15063;SDS011;7631;52.088;5.088;2023-04-06T08:59:53;9.30;;;7.73;;
15063;SDS011;7631;52.088;5.088;2023-04-06T09:02:19;8.57;;;7.63;;
15063;SDS011;7631;52.088;5.088;2023-04-06T09:04:48;9.00;;;7.23;;
15063;SDS011;7631;52.088;5.088;2023-04-06T09:07:14;9.87;;;8.23;;
15063;SDS011;7631;52.088;5.088;2023-04-06T09:09:40;11.37;;;8.73;;
15063;SDS011;7631;52.088;5.088;2023-04-06T09:12:21;10.77;;;8.20;;
15063;SDS011;7631;52.088;5.088;2023-04-06T09:14:46;9.40;;;8.33;;
15063;SDS011;7631;52.088;5.088;2023-04-06T09:17:19;9.90;;;8.10;;
15063;SDS011;7631;52.088;5.088;2023-04-06T09:19:45;9.87;;;8.20;;
15063;SDS011;7631;52.088;5.088;2023-04-06T09:22:11;9.30;;;7.30;;
15063;SDS011;7631;52.088;5.088;2023-04-06T09:24:43;9.13;;;7.87;;
15063;SDS011;7631;52.088;5.088;2023-04-06T09:27:08;10.03;;;7.60;;
15063;SDS011;7631;52.088;5.088;2023-04-06T09:29:34;9.20;;;8.07;;
15063;SDS011;7631;52.088;5.088;2023-04-06T09:32:02;10.40;;;8.33;;
15063;SDS011;7631;52.088;5.088;2023-04-06T09:34:27;9.63;;;8.53;;
15063;SDS011;7631;52.088;5.088;2023-04-06T09:36:52;9.30;;;8.03;;
15063;SDS011;7631;52.088;5.088;2023-04-06T09:39:20;10.67;;;8.20;;
15063;SDS011;7631;52.088;5.088;2023-04-06T09:41:48;10.17;;;9.03;;
15063;SDS011;7631;52.088;5.088;2023-04-06T09:44:13;10.33;;;8.70;;
15063;SDS011;7631;52.088;5.088;2023-04-06T09:46:39;10.67;;;8.30;;
15063;SDS011;7631;52.088;5.088;2023-04-06T09:49:05;10.40;;;8.93;;
15063;SDS011;7631;52.088;5.088;2023-04-06T09:51:41;11.60;;;8.97;;
15063;SDS011;7631;52.088;5.088;2023-04-06T09:54:06;10.57;;;8.90;;
15063;SDS011;7631;52.088;5.088;2023-04-06T09:57:19;12.27;;;9.23;;
15063;SDS011;7631;52.088;5.088;2023-04-06T09:59:18;10.43;;;8.57;;
15063;SDS011;7631;52.088;5.088;2023-04-06T10:01:46;10.83;;;8.40;;
15063;SDS011;7631;52.088;5.088;2023-04-06T10:04:18;11.13;;;8.77;;
15063;SDS011;7631;52.088;5.088;2023-04-06T10:06:45;12.13;;;9.33;;
15063;SDS011;7631;52.088;5.088;2023-04-06T10:09:12;11.10;;;9.13;;
15063;SDS011;7631;52.088;5.088;2023-04-06T10:11:39;11.70;;;9.33;;
15063;SDS011;7631;52.088;5.088;2023-04-06T10:14:04;11.50;;;8.97;;
15063;SDS011;7631;52.088;5.088;2023-04-06T10:16:30;11.97;;;9.17;;
15063;SDS011;7631;52.088;5.088;2023-04-06T10:18:58;11.17;;;9.10;;
15063;SDS011;7631;52.088;5.088;2023-04-06T10:21:25;10.23;;;8.60;;
15063;SDS011;7631;52.088;5.088;2023-04-06T10:23:52;12.37;;;9.10;;
15063;SDS011;7631;52.088;5.088;2023-04-06T10:26:21;11.50;;;9.03;;
15063;SDS011;7631;52.088;5.088;2023-04-06T10:28:47;12.00;;;9.07;;
15063;SDS011;7631;52.088;5.088;2023-04-06T10:31:13;10.50;;;8.93;;
15063;SDS011;7631;52.088;5.088;2023-04-06T10:33:38;10.40;;;8.60;;
15063;SDS011;7631;52.088;5.088;2023-04-06T10:36:13;9.47;;;8.47;;
15063;SDS011;7631;52.088;5.088;2023-04-06T10:38:38;11.27;;;8.10;;
15063;SDS011;7631;52.088;5.088;2023-04-06T10:41:07;11.03;;;8.03;;
15063;SDS011;7631;52.088;5.088;2023-04-06T10:43:33;11.30;;;9.23;;
15063;SDS011;7631;52.088;5.088;2023-04-06T10:46:00;9.53;;;7.83;;
15063;SDS011;7631;52.088;5.088;2023-04-06T10:48:35;9.33;;;8.17;;
15063;SDS011;7631;52.088;5.088;2023-04-06T10:51:00;11.70;;;8.07;;
15063;SDS011;7631;52.088;5.088;2023-04-06T10:56:03;11.07;;;8.57;;
15063;SDS011;7631;52.088;5.088;2023-04-06T10:58:28;9.13;;;7.57;;
15063;SDS011;7631;52.088;5.088;2023-04-06T11:00:55;10.40;;;7.67;;
15063;SDS011;7631;52.088;5.088;2023-04-06T11:03:20;9.03;;;7.80;;
15063;SDS011;7631;52.088;5.088;2023-04-06T11:05:46;9.90;;;7.80;;
15063;SDS011;7631;52.088;5.088;2023-04-06T11:08:28;9.03;;;7.40;;
15063;SDS011;7631;52.088;5.088;2023-04-06T11:11:04;8.50;;;7.40;;
15063;SDS011;7631;52.088;5.088;2023-04-06T11:13:39;8.10;;;7.13;;
15063;SDS011;7631;52.088;5.088;2023-04-06T11:16:05;8.73;;;7.50;;
15063;SDS011;7631;52.088;5.088;2023-04-06T11:18:31;9.10;;;6.70;;
15063;SDS011;7631;52.088;5.088;2023-04-06T11:20:56;9.67;;;7.10;;
15063;SDS011;7631;52.088;5.088;2023-04-06T11:23:24;8.10;;;6.80;;
15063;SDS011;7631;52.088;5.088;2023-04-06T11:25:51;7.70;;;6.80;;
15063;SDS011;7631;52.088;5.088;2023-04-06T11:28:16;8.00;;;6.60;;
15063;SDS011;7631;52.088;5.088;2023-04-06T11:30:41;7.20;;;6.30;;
15063;SDS011;7631;52.088;5.088;2023-04-06T11:33:07;8.13;;;6.37;;
15063;SDS011;7631;52.088;5.088;2023-04-06T11:35:33;9.10;;;6.77;;
15063;SDS011;7631;52.088;5.088;2023-04-06T11:37:59;7.33;;;6.20;;
15063;SDS011;7631;52.088;5.088;2023-04-06T11:40:27;6.80;;;5.87;;
15063;SDS011;7631;52.088;5.088;2023-04-06T11:42:55;7.17;;;5.83;;
15063;SDS011;7631;52.088;5.088;2023-04-06T11:45:20;6.77;;;6.07;;
15063;SDS011;7631;52.088;5.088;2023-04-06T11:47:54;7.87;;;6.03;;
15063;SDS011;7631;52.088;5.088;2023-04-06T11:50:20;6.87;;;5.83;;
15063;SDS011;7631;52.088;5.088;2023-04-06T11:52:45;6.80;;;6.10;;
15063;SDS011;7631;52.088;5.088;2023-04-06T11:55:11;6.67;;;6.00;;
15063;SDS011;7631;52.088;5.088;2023-04-06T11:57:37;6.67;;;5.70;;
15063;SDS011;7631;52.088;5.088;2023-04-06T12:00:03;8.07;;;6.33;;
15063;SDS011;7631;52.088;5.088;2023-04-06T12:02:29;6.67;;;5.80;;
15063;SDS011;7631;52.088;5.088;2023-04-06T12:04:54;6.37;;;5.73;;
15063;SDS011;7631;52.088;5.088;2023-04-06T12:07:20;7.37;;;5.73;;
15063;SDS011;7631;52.088;5.088;2023-04-06T12:09:45;5.90;;;5.30;;
15063;SDS011;7631;52.088;5.088;2023-04-06T12:12:10;6.87;;;5.50;;
15063;SDS011;7631;52.088;5.088;2023-04-06T12:14:35;5.33;;;4.73;;
15063;SDS011;7631;52.088;5.088;2023-04-06T12:17:00;5.87;;;5.27;;
15063;SDS011;7631;52.088;5.088;2023-04-06T12:19:26;7.03;;;5.67;;
15063;SDS011;7631;52.088;5.088;2023-04-06T12:21:54;6.10;;;5.33;;
15063;SDS011;7631;52.088;5.088;2023-04-06T12:24:19;5.77;;;4.93;;
15063;SDS011;7631;52.088;5.088;2023-04-06T12:26:45;6.73;;;5.33;;
15063;SDS011;7631;52.088;5.088;2023-04-06T12:29:10;5.77;;;5.07;;
15063;SDS011;7631;52.088;5.088;2023-04-06T12:31:36;6.07;;;5.20;;
15063;SDS011;7631;52.088;5.088;2023-04-06T12:34:03;6.00;;;5.27;;
15063;SDS011;7631;52.088;5.088;2023-04-06T12:36:28;5.43;;;4.90;;
15063;SDS011;7631;52.088;5.088;2023-04-06T12:38:53;6.13;;;5.13;;
15063;SDS011;7631;52.088;5.088;2023-04-06T12:41:19;6.57;;;5.00;;
15063;SDS011;7631;52.088;5.088;2023-04-06T12:43:44;5.53;;;4.93;;
15063;SDS011;7631;52.088;5.088;2023-04-06T12:46:10;6.63;;;4.43;;
15063;SDS011;7631;52.088;5.088;2023-04-06T12:48:35;5.20;;;4.70;;
15063;SDS011;7631;52.088;5.088;2023-04-06T12:51:01;5.33;;;4.77;;
15063;SDS011;7631;52.088;5.088;2023-04-06T12:53:27;5.47;;;4.77;;
15063;SDS011;7631;52.088;5.088;2023-04-06T12:55:53;5.83;;;5.10;;
15063;SDS011;7631;52.088;5.088;2023-04-06T12:58:18;5.83;;;5.13;;
15063;SDS011;7631;52.088;5.088;2023-04-06T13:00:43;5.60;;;4.73;;
15063;SDS011;7631;52.088;5.088;2023-04-06T13:03:09;5.90;;;5.03;;
15063;SDS011;7631;52.088;5.088;2023-04-06T13:05:34;6.50;;;5.30;;
15063;SDS011;7631;52.088;5.088;2023-04-06T13:07:59;5.23;;;4.57;;
15063;SDS011;7631;52.088;5.088;2023-04-06T13:10:24;5.57;;;4.70;;
15063;SDS011;7631;52.088;5.088;2023-04-06T13:12:50;5.30;;;4.80;;
15063;SDS011;7631;52.088;5.088;2023-04-06T13:15:15;5.10;;;4.57;;
15063;SDS011;7631;52.088;5.088;2023-04-06T13:17:41;6.90;;;5.53;;
15063;SDS011;7631;52.088;5.088;2023-04-06T13:20:06;7.73;;;5.13;;
15063;SDS011;7631;52.088;5.088;2023-04-06T13:22:31;5.83;;;4.87;;
15063;SDS011;7631;52.088;5.088;2023-04-06T13:24:56;5.83;;;5.10;;
15063;SDS011;7631;52.088;5.088;2023-04-06T13:27:22;6.13;;;5.20;;
15063;SDS011;7631;52.088;5.088;2023-04-06T13:29:47;5.60;;;4.73;;
15063;SDS011;7631;52.088;5.088;2023-04-06T13:32:12;5.77;;;5.17;;
15063;SDS011;7631;52.088;5.088;2023-04-06T13:34:37;5.87;;;4.40;;
15063;SDS011;7631;52.088;5.088;2023-04-06T13:37:03;5.83;;;4.90;;
15063;SDS011;7631;52.088;5.088;2023-04-06T13:39:28;5.97;;;5.07;;
15063;SDS011;7631;52.088;5.088;2023-04-06T13:41:53;5.67;;;4.83;;
15063;SDS011;7631;52.088;5.088;2023-04-06T13:44:20;5.43;;;4.93;;
15063;SDS011;7631;52.088;5.088;2023-04-06T13:46:46;5.17;;;4.67;;
15063;SDS011;7631;52.088;5.088;2023-04-06T13:49:11;6.93;;;5.60;;
15063;SDS011;7631;52.088;5.088;2023-04-06T13:51:36;6.10;;;4.87;;
15063;SDS011;7631;52.088;5.088;2023-04-06T13:54:01;6.67;;;5.23;;
15063;SDS011;7631;52.088;5.088;2023-04-06T13:56:26;5.93;;;5.17;;
15063;SDS011;7631;52.088;5.088;2023-04-06T13:58:53;6.00;;;5.27;;
15063;SDS011;7631;52.088;5.088;2023-04-06T14:01:18;6.17;;;5.33;;
15063;SDS011;7631;52.088;5.088;2023-04-06T14:03:44;6.03;;;5.43;;
15063;SDS011;7631;52.088;5.088;2023-04-06T14:06:12;5.30;;;4.80;;
15063;SDS011;7631;52.088;5.088;2023-04-06T14:08:38;5.63;;;4.93;;
15063;SDS011;7631;52.088;5.088;2023-04-06T14:11:03;5.90;;;4.80;;
15063;SDS011;7631;52.088;5.088;2023-04-06T14:13:28;6.03;;;4.97;;
15063;SDS011;7631;52.088;5.088;2023-04-06T14:15:53;5.20;;;4.70;;
15063;SDS011;7631;52.088;5.088;2023-04-06T14:18:20;6.87;;;5.27;;
15063;SDS011;7631;52.088;5.088;2023-04-06T14:20:46;6.60;;;5.37;;
15063;SDS011;7631;52.088;5.088;2023-04-06T14:23:18;6.00;;;5.37;;
15063;SDS011;7631;52.088;5.088;2023-04-06T14:25:43;6.07;;;5.10;;
15063;SDS011;7631;52.088;5.088;2023-04-06T14:28:08;5.73;;;5.00;;
15063;SDS011;7631;52.088;5.088;2023-04-06T14:30:33;6.47;;;5.67;;
15063;SDS011;7631;52.088;5.088;2023-04-06T14:32:58;6.47;;;5.40;;
15063;SDS011;7631;52.088;5.088;2023-04-06T14:35:24;5.73;;;5.13;;
15063;SDS011;7631;52.088;5.088;2023-04-06T14:37:50;7.30;;;5.60;;
15063;SDS011;7631;52.088;5.088;2023-04-06T14:40:15;5.40;;;4.90;;
15063;SDS011;7631;52.088;5.088;2023-04-06T14:42:40;6.13;;;5.23;;
15063;SDS011;7631;52.088;5.088;2023-04-06T14:45:06;5.67;;;5.17;;
15063;SDS011;7631;52.088;5.088;2023-04-06T14:47:32;6.53;;;5.60;;
15063;SDS011;7631;52.088;5.088;2023-04-06T14:49:57;5.90;;;5.10;;
15063;SDS011;7631;52.088;5.088;2023-04-06T14:52:22;6.33;;;5.30;;
15063;SDS011;7631;52.088;5.088;2023-04-06T14:54:47;5.90;;;5.27;;